Leith, North Dakota
Current Conditions -  °F | °C
As of 9:55 AM on Thursday 30 Oct 2014 (Local Time) from KD57 Reporting Station
Overcast Overcast  
Wind Chill: 26°   Ceiling: 2900
Heat Index: 34°   Visibility: 9mi
Dew Point: 30°   Wind: 10mph
Humidity: 87%   Direction: 20°NNE
Pressure: 30.33"   Gusts: 17mph
Location:  46.3453°N, 101.479°W
Report Text: KD57 301555Z AUTO 02009G15KT 9SM OVC029 01/M01 A3033 RMK AO2 TSNO
Loading
Personal Weather Stations






























Interactive Weather Map
Tropical Storm Tracking
New forecast layout! Learn more

10-Day Weather Forecast

Advertisements
Track Severe Weather on mobile